Time;durP1;ratioP1;P1;durP2;ratioP2;P2;SDS_P1;SDS_P2;PMS_P1;PMS_P2;Temp;Humidity;BMP_temperature;BMP_pressure;BME280_temperature;BME280_humidity;BME280_pressure;Samples;Min_cycle;Max_cycle;Signal;HPM_P1;HPM_P2
2023/04/01 00:00:26;;;;;;;0.43;0.43;;;;;;;;;;5088816;28;20425;-66
2023/04/01 00:02:53;;;;;;;0.70;0.40;;;;;;;;;;5089026;28;20429;-66
2023/04/01 00:05:24;;;;;;;0.30;0.30;;;;;;;;;;5088544;28;20437;-66
2023/04/01 00:07:51;;;;;;;0.88;0.28;;;;;;;;;;5107789;28;20431;-66
2023/04/01 00:10:18;;;;;;;0.50;0.30;;;;;;;;;;5106957;28;20514;-66
2023/04/01 00:12:45;;;;;;;0.40;0.40;;;;;;;;;;5104712;28;20924;-67
2023/04/01 00:15:18;;;;;;;0.25;0.25;;;;;;;;;;5087298;28;20487;-66
2023/04/01 00:17:45;;;;;;;1.20;0.50;;;;;;;;;;5103562;28;20978;-66
2023/04/01 00:20:14;;;;;;;0.13;0.13;;;;;;;;;;5092569;28;20426;-66
2023/04/01 00:22:41;;;;;;;0.20;0.20;;;;;;;;;;5094541;27;21910;-66
2023/04/01 00:25:09;;;;;;;0.22;0.22;;;;;;;;;;5124101;27;20458;-66
2023/04/01 00:27:41;;;;;;;0.30;0.30;;;;;;;;;;5116240;27;20898;-67
2023/04/01 00:30:09;;;;;;;0.40;0.40;;;;;;;;;;5092820;28;21153;-66
2023/04/01 00:32:36;;;;;;;0.40;0.20;;;;;;;;;;5099124;28;20420;-66
2023/04/01 00:35:04;;;;;;;1.60;0.40;;;;;;;;;;5097856;28;20417;-66
2023/04/01 00:37:31;;;;;;;1.45;0.47;;;;;;;;;;5106490;28;21095;-66
2023/04/01 00:39:58;;;;;;;1.48;0.50;;;;;;;;;;5110754;28;20432;-66
2023/04/01 00:42:26;;;;;;;0.20;0.20;;;;;;;;;;5100872;28;20432;-66
2023/04/01 00:44:54;;;;;;;0.20;0.20;;;;;;;;;;5101724;28;20460;-66
2023/04/01 00:47:22;;;;;;;0.28;0.28;;;;;;;;;;5091509;28;20426;-66
2023/04/01 00:49:51;;;;;;;0.20;0.20;;;;;;;;;;5090913;28;20459;-66
2023/04/01 00:52:20;;;;;;;0.10;0.10;;;;;;;;;;5090822;28;20541;-66
2023/04/01 00:54:49;;;;;;;0.40;0.40;;;;;;;;;;5090171;28;20805;-66
2023/04/01 00:57:26;;;;;;;0.20;0.20;;;;;;;;;;5091524;28;20425;-69
2023/04/01 00:59:56;;;;;;;0.10;0.10;;;;;;;;;;5091424;28;20430;-69
2023/04/01 01:02:25;;;;;;;0.57;0.35;;;;;;;;;;5107954;28;20432;-67
2023/04/01 01:04:53;;;;;;;0.20;0.20;;;;;;;;;;5101431;27;20447;-67
2023/04/01 01:07:33;;;;;;;2.70;0.63;;;;;;;;;;5104888;28;20464;-67
2023/04/01 01:10:00;;;;;;;0.30;0.30;;;;;;;;;;5091369;28;20434;-66
2023/04/01 01:12:35;;;;;;;0.28;0.28;;;;;;;;;;5090369;28;20446;-67
2023/04/01 01:15:02;;;;;;;1.90;0.30;;;;;;;;;;5090740;28;20425;-67
2023/04/01 01:17:38;;;;;;;0.52;0.30;;;;;;;;;;5101539;28;20435;-67
2023/04/01 01:20:21;;;;;;;0.20;0.20;;;;;;;;;;5106171;28;22676;-67
2023/04/01 01:23:03;;;;;;;0.20;0.20;;;;;;;;;;5091162;28;20426;-67
2023/04/01 01:25:30;;;;;;;0.20;0.20;;;;;;;;;;5090439;28;20480;-66
2023/04/01 01:28:04;;;;;;;0.20;0.20;;;;;;;;;;5093014;28;20443;-67
2023/04/01 01:30:53;;;;;;;0.50;0.40;;;;;;;;;;5099551;28;21183;-67
2023/04/01 01:33:39;;;;;;;0.40;0.40;;;;;;;;;;5091221;28;20429;-67
2023/04/01 01:36:10;;;;;;;0.20;0.20;;;;;;;;;;5089150;28;20457;-67
2023/04/01 01:38:38;;;;;;;0.20;0.20;;;;;;;;;;5093404;28;20430;-67
2023/04/01 01:41:07;;;;;;;0.10;0.10;;;;;;;;;;5105455;27;20428;-67
2023/04/01 01:43:39;;;;;;;0.40;0.40;;;;;;;;;;5104021;27;20433;-67
2023/04/01 01:46:10;;;;;;;0.20;0.20;;;;;;;;;;5093156;27;20431;-67
2023/04/01 01:48:37;;;;;;;0.20;0.20;;;;;;;;;;5115068;27;20946;-66
2023/04/01 01:51:08;;;;;;;0.35;0.28;;;;;;;;;;5095669;28;20517;-67
2023/04/01 01:53:35;;;;;;;0.10;0.10;;;;;;;;;;5104008;28;20463;-67
2023/04/01 01:56:03;;;;;;;0.20;0.20;;;;;;;;;;5089856;28;20449;-67
2023/04/01 01:58:42;;;;;;;0.20;0.20;;;;;;;;;;5092780;28;20444;-66
2023/04/01 02:01:18;;;;;;;0.13;0.13;;;;;;;;;;5103898;28;20897;-67
2023/04/01 02:03:45;;;;;;;0.43;0.43;;;;;;;;;;5089211;28;21102;-66
2023/04/01 02:06:15;;;;;;;0.30;0.30;;;;;;;;;;5089618;28;20437;-66
2023/04/01 02:08:53;;;;;;;0.15;0.15;;;;;;;;;;5088562;28;20981;-66
2023/04/01 02:11:28;;;;;;;0.20;0.20;;;;;;;;;;5089104;28;20738;-67
2023/04/01 02:14:01;;;;;;;0.30;0.30;;;;;;;;;;5112114;27;20460;-66
2023/04/01 02:16:30;;;;;;;0.10;0.10;;;;;;;;;;5116002;27;20486;-66
2023/04/01 02:18:58;;;;;;;0.20;0.20;;;;;;;;;;5108870;28;20519;-66
2023/04/01 02:21:28;;;;;;;0.20;0.20;;;;;;;;;;5108557;28;20428;-67
2023/04/01 02:24:00;;;;;;;0.32;0.32;;;;;;;;;;5089780;28;20463;-67
2023/04/01 02:26:27;;;;;;;0.25;0.25;;;;;;;;;;5099132;28;20506;-67
2023/04/01 02:28:56;;;;;;;0.10;0.10;;;;;;;;;;5094048;28;20436;-67
2023/04/01 02:31:27;;;;;;;0.20;0.20;;;;;;;;;;5103560;28;20516;-67
2023/04/01 02:33:56;;;;;;;0.30;0.30;;;;;;;;;;5088713;28;20422;-67
2023/04/01 02:36:26;;;;;;;0.60;0.40;;;;;;;;;;5093654;28;20898;-66
2023/04/01 02:38:54;;;;;;;0.20;0.20;;;;;;;;;;5097100;28;20433;-67
2023/04/01 02:41:22;;;;;;;0.60;0.30;;;;;;;;;;5095107;28;20850;-66
2023/04/01 02:43:49;;;;;;;0.30;0.30;;;;;;;;;;5091432;28;20443;-67
2023/04/01 02:46:17;;;;;;;0.30;0.30;;;;;;;;;;5097785;28;20556;-67
2023/04/01 02:48:46;;;;;;;0.70;0.70;;;;;;;;;;5090646;28;20682;-66
2023/04/01 02:51:15;;;;;;;0.20;0.20;;;;;;;;;;5089784;28;20525;-67
2023/04/01 02:53:44;;;;;;;0.20;0.20;;;;;;;;;;5087292;28;20436;-66
2023/04/01 02:56:11;;;;;;;0.20;0.20;;;;;;;;;;5088833;28;20995;-67
2023/04/01 02:58:38;;;;;;;0.30;0.30;;;;;;;;;;5089625;28;20512;-67
2023/04/01 03:01:06;;;;;;;0.20;0.20;;;;;;;;;;5088798;28;20429;-67
2023/04/01 03:03:33;;;;;;;0.40;0.40;;;;;;;;;;5088677;28;21152;-67
2023/04/01 03:06:05;;;;;;;0.30;0.30;;;;;;;;;;5102547;28;20532;-66
2023/04/01 03:08:32;;;;;;;0.10;0.10;;;;;;;;;;5089067;28;20513;-67
2023/04/01 03:10:59;;;;;;;0.10;0.10;;;;;;;;;;5087949;28;20418;-67
2023/04/01 03:13:27;;;;;;;0.30;0.30;;;;;;;;;;5087569;28;20453;-67
2023/04/01 03:15:54;;;;;;;0.20;0.20;;;;;;;;;;5101779;28;20424;-67
2023/04/01 03:18:21;;;;;;;0.30;0.30;;;;;;;;;;5089037;28;20487;-66
2023/04/01 03:20:48;;;;;;;0.40;0.40;;;;;;;;;;5098906;28;20914;-67
2023/04/01 03:23:17;;;;;;;0.20;0.20;;;;;;;;;;5092089;28;20430;-67
2023/04/01 03:25:44;;;;;;;0.60;0.30;;;;;;;;;;5088702;28;20729;-67
2023/04/01 03:28:13;;;;;;;0.10;0.10;;;;;;;;;;5097694;28;20437;-66
2023/04/01 03:30:40;;;;;;;0.30;0.30;;;;;;;;;;5101259;28;20457;-67
2023/04/01 03:33:07;;;;;;;0.20;0.20;;;;;;;;;;5095310;28;20481;-66
2023/04/01 03:35:35;;;;;;;0.10;0.10;;;;;;;;;;5093062;28;20961;-66
2023/04/01 03:38:03;;;;;;;0.20;0.20;;;;;;;;;;5103306;28;20915;-67
2023/04/01 03:40:30;;;;;;;0.70;0.40;;;;;;;;;;5092121;28;20921;-67
2023/04/01 03:42:57;;;;;;;0.20;0.20;;;;;;;;;;5101842;28;20938;-67
2023/04/01 03:45:24;;;;;;;0.30;0.30;;;;;;;;;;5095151;28;20428;-67
2023/04/01 03:47:52;;;;;;;0.50;0.50;;;;;;;;;;5090735;28;20428;-67
2023/04/01 03:50:19;;;;;;;0.30;0.30;;;;;;;;;;5105785;28;20472;-67
2023/04/01 03:52:46;;;;;;;0.50;0.50;;;;;;;;;;5090523;28;20480;-67
2023/04/01 03:55:13;;;;;;;0.50;0.50;;;;;;;;;;5092317;28;20534;-67
2023/04/01 03:57:41;;;;;;;0.80;0.30;;;;;;;;;;5093202;28;20421;-67
2023/04/01 04:00:08;;;;;;;0.20;0.20;;;;;;;;;;5092648;28;20432;-66
2023/04/01 04:02:35;;;;;;;0.50;0.30;;;;;;;;;;5107284;28;20467;-66
2023/04/01 04:05:03;;;;;;;0.30;0.30;;;;;;;;;;5111130;28;20511;-67
2023/04/01 04:07:30;;;;;;;0.20;0.20;;;;;;;;;;5110781;28;20420;-67
2023/04/01 04:09:57;;;;;;;0.20;0.20;;;;;;;;;;5094999;28;20421;-67
2023/04/01 04:12:24;;;;;;;7.30;0.70;;;;;;;;;;5091278;28;20427;-67
2023/04/01 04:14:51;;;;;;;0.28;0.25;;;;;;;;;;5091049;28;20432;-67
2023/04/01 04:17:18;;;;;;;1.20;0.60;;;;;;;;;;5105221;28;20944;-67
2023/04/01 04:19:45;;;;;;;0.20;0.20;;;;;;;;;;5106693;28;20774;-67
2023/04/01 04:22:15;;;;;;;0.30;0.30;;;;;;;;;;5099433;28;20461;-67
2023/04/01 04:24:43;;;;;;;0.70;0.30;;;;;;;;;;5096864;28;20853;-67
2023/04/01 04:27:10;;;;;;;0.15;0.15;;;;;;;;;;5090330;28;21529;-67
2023/04/01 04:29:37;;;;;;;0.30;0.30;;;;;;;;;;5097761;28;20423;-67
2023/04/01 04:32:04;;;;;;;0.60;0.60;;;;;;;;;;5099285;28;20432;-67
2023/04/01 04:34:31;;;;;;;0.60;0.22;;;;;;;;;;5091565;28;20421;-67
2023/04/01 04:37:01;;;;;;;0.20;0.20;;;;;;;;;;5101070;28;20792;-67
2023/04/01 04:39:30;;;;;;;0.80;0.40;;;;;;;;;;5108137;28;20462;-67
2023/04/01 04:41:57;;;;;;;1.70;0.30;;;;;;;;;;5109682;28;20428;-67
2023/04/01 04:44:24;;;;;;;1.10;0.40;;;;;;;;;;5093165;28;20433;-67
2023/04/01 04:46:52;;;;;;;1.77;0.38;;;;;;;;;;5110247;28;20424;-67
2023/04/01 04:49:19;;;;;;;0.30;0.30;;;;;;;;;;5090025;28;20429;-67
2023/04/01 04:51:46;;;;;;;0.20;0.20;;;;;;;;;;5089910;28;20429;-68
2023/04/01 04:54:13;;;;;;;0.47;0.47;;;;;;;;;;5090692;28;20963;-67
2023/04/01 04:56:40;;;;;;;0.15;0.15;;;;;;;;;;5099506;28;20424;-67
2023/04/01 04:59:07;;;;;;;0.10;0.10;;;;;;;;;;5102958;28;20458;-67
2023/04/01 05:01:34;;;;;;;0.30;0.30;;;;;;;;;;5110581;28;20934;-67
2023/04/01 05:04:02;;;;;;;0.90;0.90;;;;;;;;;;5107626;28;20440;-68
2023/04/01 05:06:32;;;;;;;0.20;0.20;;;;;;;;;;5090787;28;20575;-67
2023/04/01 05:09:01;;;;;;;0.20;0.20;;;;;;;;;;5101730;28;20425;-67
2023/04/01 05:11:28;;;;;;;0.28;0.28;;;;;;;;;;5108167;28;21093;-67
2023/04/01 05:13:55;;;;;;;0.30;0.30;;;;;;;;;;5095461;28;20517;-67
2023/04/01 05:16:23;;;;;;;0.10;0.10;;;;;;;;;;5099059;28;20452;-67
2023/04/01 05:18:50;;;;;;;0.20;0.20;;;;;;;;;;5090874;28;20900;-67
2023/04/01 05:21:17;;;;;;;0.40;0.35;;;;;;;;;;5091506;28;20908;-67
2023/04/01 05:23:44;;;;;;;0.30;0.30;;;;;;;;;;5090275;28;20436;-67
2023/04/01 05:26:13;;;;;;;0.30;0.20;;;;;;;;;;5090273;28;20469;-67
2023/04/01 05:28:40;;;;;;;0.30;0.30;;;;;;;;;;5089331;28;20430;-68
2023/04/01 05:31:11;;;;;;;1.10;0.30;;;;;;;;;;5089565;28;20426;-67
2023/04/01 05:33:38;;;;;;;1.70;0.20;;;;;;;;;;5097110;28;20512;-67
2023/04/01 05:36:13;;;;;;;0.10;0.10;;;;;;;;;;5090660;28;20512;-67
2023/04/01 05:38:40;;;;;;;0.25;0.25;;;;;;;;;;5103737;28;20434;-67
2023/04/01 05:41:16;;;;;;;0.88;0.38;;;;;;;;;;5090649;28;20432;-67
2023/04/01 05:43:44;;;;;;;0.30;0.30;;;;;;;;;;5091216;28;20523;-67
2023/04/01 05:46:11;;;;;;;0.38;0.38;;;;;;;;;;5105797;27;20423;-66
2023/04/01 05:48:38;;;;;;;0.80;0.40;;;;;;;;;;5112416;27;20900;-68
2023/04/01 05:51:12;;;;;;;0.30;0.30;;;;;;;;;;5099041;28;20921;-67
2023/04/01 05:53:39;;;;;;;1.70;0.30;;;;;;;;;;5094660;28;20418;-67
2023/04/01 05:56:09;;;;;;;0.15;0.15;;;;;;;;;;5089409;28;20833;-67
2023/04/01 05:58:37;;;;;;;0.20;0.20;;;;;;;;;;5093858;27;20828;-67
2023/04/01 06:01:05;;;;;;;0.30;0.30;;;;;;;;;;5120931;27;20904;-67
2023/04/01 06:03:38;;;;;;;0.20;0.20;;;;;;;;;;5104161;27;20429;-67
2023/04/01 06:06:13;;;;;;;0.28;0.28;;;;;;;;;;5088660;28;20433;-67
2023/04/01 06:08:40;;;;;;;0.35;0.35;;;;;;;;;;5089863;28;20514;-67
2023/04/01 06:11:10;;;;;;;0.57;0.40;;;;;;;;;;5090971;28;20774;-67
2023/04/01 06:13:44;;;;;;;0.30;0.30;;;;;;;;;;5088729;28;20934;-67
2023/04/01 06:16:31;;;;;;;0.28;0.28;;;;;;;;;;5092100;28;20503;-67
2023/04/01 06:19:21;;;;;;;0.10;0.10;;;;;;;;;;5108585;27;20424;-67
2023/04/01 06:22:00;;;;;;;0.63;0.63;;;;;;;;;;5089604;28;20437;-66
2023/04/01 06:24:27;;;;;;;0.28;0.28;;;;;;;;;;5099710;28;20416;-67
2023/04/01 06:26:54;;;;;;;1.20;0.35;;;;;;;;;;5092826;28;20457;-67
2023/04/01 06:29:51;;;;;;;0.60;0.60;;;;;;;;;;5089656;28;20429;-67
2023/04/01 06:32:36;;;;;;;0.30;0.30;;;;;;;;;;5087423;28;20446;-67
2023/04/01 06:35:07;;;;;;;1.30;0.50;;;;;;;;;;5093562;28;20422;-66
2023/04/01 06:37:50;;;;;;;0.20;0.20;;;;;;;;;;5089099;28;20433;-67
2023/04/01 06:40:23;;;;;;;0.10;0.10;;;;;;;;;;5092991;28;20492;-67
2023/04/01 06:43:06;;;;;;;0.20;0.20;;;;;;;;;;5098549;28;20954;-67
2023/04/01 06:45:39;;;;;;;0.20;0.20;;;;;;;;;;5095741;28;20510;-67
2023/04/01 06:48:15;;;;;;;0.50;0.50;;;;;;;;;;5103411;28;20443;-65
2023/04/01 06:50:53;;;;;;;0.20;0.20;;;;;;;;;;5089680;28;20422;-65
2023/04/01 06:53:33;;;;;;;0.40;0.40;;;;;;;;;;5088336;28;20504;-66
2023/04/01 06:56:06;;;;;;;0.30;0.30;;;;;;;;;;5088415;28;20422;-66
2023/04/01 06:58:45;;;;;;;0.10;0.10;;;;;;;;;;5096927;28;20422;-66
2023/04/01 07:01:20;;;;;;;0.20;0.20;;;;;;;;;;5089453;28;20450;-68
2023/04/01 07:03:58;;;;;;;0.80;0.60;;;;;;;;;;5101400;28;20451;-66
2023/04/01 07:06:29;;;;;;;3.50;0.40;;;;;;;;;;5098011;28;20473;-66
2023/04/01 07:09:00;;;;;;;0.20;0.20;;;;;;;;;;5092912;28;20464;-66
2023/04/01 07:11:39;;;;;;;0.10;0.10;;;;;;;;;;5103183;28;20422;-66
2023/04/01 07:14:26;;;;;;;0.20;0.20;;;;;;;;;;5088611;28;20449;-66
2023/04/01 07:17:08;;;;;;;0.17;0.17;;;;;;;;;;5090366;28;20421;-66
2023/04/01 07:19:40;;;;;;;0.20;0.20;;;;;;;;;;5098046;28;20436;-66
2023/04/01 07:22:16;;;;;;;0.20;0.20;;;;;;;;;;5087989;28;20856;-66
2023/04/01 07:24:45;;;;;;;0.40;0.20;;;;;;;;;;5094319;28;20434;-68
2023/04/01 07:27:13;;;;;;;0.30;0.30;;;;;;;;;;5096645;28;20479;-68
2023/04/01 07:29:40;;;;;;;0.17;0.17;;;;;;;;;;5088060;28;20780;-67
2023/04/01 07:32:14;;;;;;;0.20;0.20;;;;;;;;;;5087192;28;20422;-65
2023/04/01 07:34:41;;;;;;;0.20;0.20;;;;;;;;;;5088075;28;20430;-66
2023/04/01 07:37:21;;;;;;;0.10;0.10;;;;;;;;;;5102552;28;20427;-66
2023/04/01 07:39:51;;;;;;;0.30;0.30;;;;;;;;;;5088760;28;20432;-66
2023/04/01 07:42:27;;;;;;;0.10;0.10;;;;;;;;;;5088834;28;20486;-66
2023/04/01 07:45:07;;;;;;;0.20;0.20;;;;;;;;;;5099705;28;20475;-67
2023/04/01 07:47:40;;;;;;;0.10;0.10;;;;;;;;;;5093580;28;20432;-66
2023/04/01 07:50:19;;;;;;;0.20;0.20;;;;;;;;;;5096366;28;20509;-66
2023/04/01 07:52:52;;;;;;;0.10;0.10;;;;;;;;;;5088746;28;20427;-66
2023/04/01 07:55:24;;;;;;;0.38;0.30;;;;;;;;;;5099467;28;20433;-66
2023/04/01 07:57:57;;;;;;;0.20;0.20;;;;;;;;;;5089292;28;20425;-66
2023/04/01 08:00:34;;;;;;;0.30;0.30;;;;;;;;;;5087690;28;20425;-66
2023/04/01 08:03:17;;;;;;;0.10;0.10;;;;;;;;;;5102997;28;20428;-66
2023/04/01 08:05:59;;;;;;;0.20;0.20;;;;;;;;;;5089992;28;20430;-66
2023/04/01 08:08:34;;;;;;;0.10;0.10;;;;;;;;;;5088339;28;20437;-66
2023/04/01 08:11:02;;;;;;;0.22;0.22;;;;;;;;;;5088743;28;20437;-66
2023/04/01 08:13:38;;;;;;;0.10;0.10;;;;;;;;;;5108951;28;20509;-66
2023/04/01 08:16:31;;;;;;;0.20;0.20;;;;;;;;;;5106225;27;20501;-68
2023/04/01 08:18:59;;;;;;;0.90;0.20;;;;;;;;;;5087782;28;20449;-66
2023/04/01 08:21:28;;;;;;;0.20;0.20;;;;;;;;;;5101486;28;20430;-66
2023/04/01 08:23:57;;;;;;;2.20;0.20;;;;;;;;;;5087685;28;20444;-66
2023/04/01 08:26:36;;;;;;;0.10;0.10;;;;;;;;;;5087535;28;20517;-66
2023/04/01 08:29:17;;;;;;;0.30;0.30;;;;;;;;;;5088270;28;20426;-66
2023/04/01 08:31:45;;;;;;;0.10;0.10;;;;;;;;;;5090800;28;20490;-66
2023/04/01 08:34:26;;;;;;;1.10;0.80;;;;;;;;;;5101422;28;20843;-65
2023/04/01 08:36:57;;;;;;;0.20;0.20;;;;;;;;;;5100947;28;20424;-66
2023/04/01 08:39:30;;;;;;;0.10;0.10;;;;;;;;;;5097054;28;20435;-65
2023/04/01 08:42:20;;;;;;;0.13;0.13;;;;;;;;;;5098374;28;20430;-66
2023/04/01 08:45:00;;;;;;;0.10;0.10;;;;;;;;;;5091703;28;20434;-66
2023/04/01 08:47:47;;;;;;;0.20;0.20;;;;;;;;;;5091011;28;20426;-66
2023/04/01 08:50:25;;;;;;;0.10;0.10;;;;;;;;;;5090925;28;20487;-67
2023/04/01 08:53:11;;;;;;;0.30;0.30;;;;;;;;;;5105857;28;20433;-66
2023/04/01 08:55:41;;;;;;;0.10;0.10;;;;;;;;;;5090207;28;20433;-66
2023/04/01 08:58:26;;;;;;;0.20;0.20;;;;;;;;;;5101765;28;20420;-66
2023/04/01 09:01:13;;;;;;;0.10;0.10;;;;;;;;;;5106939;28;20442;-66
2023/04/01 09:03:55;;;;;;;0.20;0.20;;;;;;;;;;5089350;28;20432;-66
2023/04/01 09:06:51;;;;;;;0.10;0.10;;;;;;;;;;5109019;28;20434;-66
2023/04/01 09:09:25;;;;;;;0.20;0.20;;;;;;;;;;5091157;28;20490;-66
2023/04/01 09:12:10;;;;;;;0.05;0.05;;;;;;;;;;5090525;28;20436;-66
2023/04/01 09:14:46;;;;;;;0.20;0.20;;;;;;;;;;5091409;28;20421;-66
2023/04/01 09:17:32;;;;;;;0.10;0.10;;;;;;;;;;5103816;28;20462;-66
2023/04/01 09:20:18;;;;;;;0.20;0.20;;;;;;;;;;5105426;28;20429;-66
2023/04/01 09:23:03;;;;;;;0.30;0.30;;;;;;;;;;5103317;28;21007;-66
2023/04/01 09:25:46;;;;;;;0.10;0.10;;;;;;;;;;5089908;28;20434;-66
2023/04/01 09:28:18;;;;;;;0.20;0.20;;;;;;;;;;5090984;28;20425;-66
2023/04/01 09:30:57;;;;;;;0.40;0.40;;;;;;;;;;5095848;28;21172;-66
2023/04/01 09:33:39;;;;;;;0.30;0.30;;;;;;;;;;5090565;28;20846;-66
2023/04/01 09:36:26;;;;;;;0.20;0.15;;;;;;;;;;5090217;28;20433;-66
2023/04/01 09:38:57;;;;;;;0.20;0.20;;;;;;;;;;5091470;28;20811;-66
2023/04/01 09:41:31;;;;;;;0.10;0.10;;;;;;;;;;5093475;28;20450;-66
2023/04/01 09:44:03;;;;;;;0.20;0.20;;;;;;;;;;5103435;28;20426;-66
2023/04/01 09:46:31;;;;;;;0.20;0.20;;;;;;;;;;5098866;28;20500;-66
2023/04/01 09:49:06;;;;;;;0.10;0.10;;;;;;;;;;5095537;28;20446;-67
2023/04/01 09:51:55;;;;;;;0.20;0.20;;;;;;;;;;5093446;28;20515;-66
2023/04/01 09:54:30;;;;;;;0.20;0.20;;;;;;;;;;5096024;28;20422;-67
2023/04/01 09:57:13;;;;;;;0.20;0.20;;;;;;;;;;5089814;28;20439;-67
2023/04/01 10:00:09;;;;;;;0.20;0.20;;;;;;;;;;5103840;28;20436;-67
2023/04/01 10:02:55;;;;;;;0.20;0.20;;;;;;;;;;5102178;28;20516;-67
2023/04/01 10:05:34;;;;;;;0.10;0.10;;;;;;;;;;5090079;28;21146;-67
2023/04/01 10:08:29;;;;;;;0.20;0.20;;;;;;;;;;5089765;28;20429;-67
2023/04/01 10:11:14;;;;;;;0.20;0.20;;;;;;;;;;5095477;28;20582;-67
2023/04/01 10:13:41;;;;;;;0.20;0.20;;;;;;;;;;5108163;28;20455;-67
2023/04/01 10:16:20;;;;;;;1.30;0.40;;;;;;;;;;5104938;28;20430;-67
2023/04/01 10:18:47;;;;;;;0.10;0.10;;;;;;;;;;5089363;28;20421;-67
2023/04/01 10:21:38;;;;;;;0.30;0.30;;;;;;;;;;5088760;28;20433;-68
2023/04/01 10:24:27;;;;;;;0.20;0.20;;;;;;;;;;5083699;28;20421;-68
2023/04/01 10:27:17;;;;;;;0.10;0.10;;;;;;;;;;5097729;28;20450;-67
2023/04/01 10:29:59;;;;;;;0.20;0.20;;;;;;;;;;5089816;28;20422;-68
2023/04/01 10:32:35;;;;;;;0.10;0.10;;;;;;;;;;5088345;28;20425;-67
2023/04/01 10:35:06;;;;;;;0.28;0.28;;;;;;;;;;5101810;28;20422;-68
2023/04/01 10:37:33;;;;;;;0.10;0.10;;;;;;;;;;5101507;28;20454;-67
2023/04/01 10:40:19;;;;;;;0.20;0.20;;;;;;;;;;5098834;28;20424;-67
2023/04/01 10:42:58;;;;;;;0.10;0.10;;;;;;;;;;5093557;28;21166;-67
2023/04/01 10:45:46;;;;;;;0.20;0.20;;;;;;;;;;5107650;28;20507;-67
2023/04/01 10:48:32;;;;;;;0.10;0.10;;;;;;;;;;5089615;28;20426;-68
2023/04/01 10:51:02;;;;;;;0.10;0.10;;;;;;;;;;5089407;28;20432;-67
2023/04/01 10:53:34;;;;;;;0.20;0.20;;;;;;;;;;5089047;28;20428;-67
2023/04/01 10:56:15;;;;;;;0.10;0.10;;;;;;;;;;5092773;28;20507;-67
2023/04/01 10:58:50;;;;;;;0.25;0.25;;;;;;;;;;5096078;28;20477;-67
2023/04/01 11:01:35;;;;;;;0.10;0.10;;;;;;;;;;5088643;28;21018;-67
2023/04/01 11:04:21;;;;;;;0.20;0.20;;;;;;;;;;5092251;28;20463;-67
2023/04/01 11:07:05;;;;;;;0.20;0.20;;;;;;;;;;5096262;28;20425;-67
2023/04/01 11:09:41;;;;;;;0.10;0.10;;;;;;;;;;5103051;28;20476;-67
2023/04/01 11:12:27;;;;;;;0.20;0.20;;;;;;;;;;5089305;28;20429;-67
2023/04/01 11:15:12;;;;;;;0.13;0.13;;;;;;;;;;5087734;28;20842;-67
2023/04/01 11:17:45;;;;;;;0.10;0.10;;;;;;;;;;5088368;28;20426;-67
2023/04/01 11:20:19;;;;;;;0.90;0.30;;;;;;;;;;5095200;28;20434;-68
2023/04/01 11:22:52;;;;;;;0.10;0.10;;;;;;;;;;5095815;28;20521;-67
2023/04/01 11:25:41;;;;;;;0.20;0.20;;;;;;;;;;5087425;28;20552;-67
2023/04/01 11:28:08;;;;;;;0.10;0.10;;;;;;;;;;5089384;28;20444;-67
2023/04/01 11:30:35;;;;;;;0.20;0.20;;;;;;;;;;5100867;28;20920;-67
2023/04/01 11:33:02;;;;;;;0.20;0.20;;;;;;;;;;5087393;28;20426;-68
2023/04/01 11:35:36;;;;;;;0.10;0.10;;;;;;;;;;5107103;28;20543;-67
2023/04/01 11:38:22;;;;;;;0.20;0.20;;;;;;;;;;5096453;28;20434;-67
2023/04/01 11:40:54;;;;;;;0.10;0.10;;;;;;;;;;5101332;28;20433;-67
2023/04/01 11:43:28;;;;;;;0.10;0.10;;;;;;;;;;5114274;28;20498;-67
2023/04/01 11:46:09;;;;;;;0.10;0.10;;;;;;;;;;5093710;28;20862;-68
2023/04/01 11:48:53;;;;;;;0.20;0.20;;;;;;;;;;5095759;28;20430;-67
2023/04/01 11:51:39;;;;;;;0.20;0.20;;;;;;;;;;5102956;28;20526;-67
2023/04/01 11:54:15;;;;;;;0.10;0.10;;;;;;;;;;5088444;28;20916;-67
2023/04/01 11:57:00;;;;;;;0.20;0.20;;;;;;;;;;5102845;28;20563;-68
2023/04/01 11:59:40;;;;;;;0.20;0.20;;;;;;;;;;5101800;28;20424;-67
2023/04/01 12:02:22;;;;;;;0.10;0.10;;;;;;;;;;5101704;28;20926;-67
2023/04/01 12:05:03;;;;;;;0.10;0.10;;;;;;;;;;5100907;28;20494;-67
2023/04/01 12:07:36;;;;;;;0.30;0.30;;;;;;;;;;5088640;28;20824;-67
2023/04/01 12:10:15;;;;;;;0.10;0.10;;;;;;;;;;5087362;28;20439;-67
2023/04/01 12:13:02;;;;;;;0.10;0.10;;;;;;;;;;5089257;28;20428;-67
2023/04/01 12:15:48;;;;;;;0.20;0.20;;;;;;;;;;5091636;28;20418;-67
2023/04/01 12:18:29;;;;;;;0.10;0.10;;;;;;;;;;5091225;28;20433;-67
2023/04/01 12:21:14;;;;;;;0.10;0.10;;;;;;;;;;5092477;28;20421;-66
2023/04/01 12:23:47;;;;;;;0.20;0.20;;;;;;;;;;5092611;28;20513;-67
2023/04/01 12:26:29;;;;;;;0.10;0.10;;;;;;;;;;5095609;28;20425;-67
2023/04/01 12:29:15;;;;;;;0.20;0.20;;;;;;;;;;5091915;28;20452;-67
2023/04/01 12:31:45;;;;;;;0.10;0.10;;;;;;;;;;5091501;28;20453;-67
2023/04/01 12:34:21;;;;;;;0.13;0.13;;;;;;;;;;5091669;28;20422;-67
2023/04/01 12:37:07;;;;;;;0.20;0.20;;;;;;;;;;5105255;28;20425;-67
2023/04/01 12:39:43;;;;;;;0.20;0.20;;;;;;;;;;5091581;28;20426;-68
2023/04/01 12:42:10;;;;;;;0.20;0.20;;;;;;;;;;5091243;28;20430;-68
2023/04/01 12:44:53;;;;;;;0.20;0.20;;;;;;;;;;5103325;28;20431;-67
2023/04/01 12:47:32;;;;;;;0.20;0.20;;;;;;;;;;5093722;28;20424;-68
2023/04/01 12:50:15;;;;;;;0.10;0.10;;;;;;;;;;5107765;28;20439;-68
2023/04/01 12:52:42;;;;;;;0.20;0.20;;;;;;;;;;5105873;28;20459;-67
2023/04/01 12:55:37;;;;;;;0.10;0.10;;;;;;;;;;5106038;28;20812;-67
2023/04/01 12:58:17;;;;;;;0.10;0.10;;;;;;;;;;5093010;28;20445;-66
2023/04/01 13:00:44;;;;;;;0.10;0.10;;;;;;;;;;5098887;28;20428;-68
2023/04/01 13:03:29;;;;;;;0.10;0.10;;;;;;;;;;5091284;28;20495;-69
2023/04/01 13:06:02;;;;;;;0.10;0.10;;;;;;;;;;5090825;28;21147;-69
2023/04/01 13:08:54;;;;;;;0.10;0.10;;;;;;;;;;5108412;28;20810;-69
2023/04/01 13:11:30;;;;;;;0.10;0.10;;;;;;;;;;5098364;28;20477;-69
2023/04/01 13:14:03;;;;;;;0.20;0.20;;;;;;;;;;5104201;28;20422;-68
2023/04/01 13:16:34;;;;;;;0.10;0.10;;;;;;;;;;5099957;28;20944;-68
2023/04/01 13:19:20;;;;;;;0.20;0.20;;;;;;;;;;5096423;28;20433;-68
2023/04/01 13:22:06;;;;;;;0.10;0.10;;;;;;;;;;5091267;28;20422;-68
2023/04/01 13:24:52;;;;;;;1.00;0.30;;;;;;;;;;5090450;28;20457;-68
2023/04/01 13:27:23;;;;;;;0.20;0.20;;;;;;;;;;5090687;28;20436;-68
2023/04/01 13:30:02;;;;;;;0.20;0.20;;;;;;;;;;5089929;28;20422;-68
2023/04/01 13:32:38;;;;;;;0.20;0.20;;;;;;;;;;5090608;28;20417;-68
2023/04/01 13:35:11;;;;;;;0.20;0.20;;;;;;;;;;5090005;28;20422;-68
2023/04/01 13:37:57;;;;;;;0.10;0.10;;;;;;;;;;5091022;28;20425;-68
2023/04/01 13:40:35;;;;;;;0.20;0.20;;;;;;;;;;5103892;28;20871;-68
2023/04/01 13:43:21;;;;;;;0.30;0.30;;;;;;;;;;5089891;28;20789;-67
2023/04/01 13:45:48;;;;;;;0.15;0.15;;;;;;;;;;5105349;28;20457;-68
2023/04/01 13:48:27;;;;;;;0.17;0.17;;;;;;;;;;5099427;28;20455;-67
2023/04/01 13:51:00;;;;;;;0.10;0.10;;;;;;;;;;5091860;27;20422;-68
2023/04/01 13:53:39;;;;;;;0.20;0.20;;;;;;;;;;5090733;28;20503;-67
2023/04/01 13:56:21;;;;;;;0.20;0.20;;;;;;;;;;5090589;28;20429;-68
2023/04/01 13:59:03;;;;;;;0.10;0.10;;;;;;;;;;5090904;28;20518;-67
2023/04/01 14:01:30;;;;;;;0.10;0.10;;;;;;;;;;5088959;28;20482;-67
2023/04/01 14:04:10;;;;;;;0.17;0.17;;;;;;;;;;5095546;28;20518;-68
2023/04/01 14:06:46;;;;;;;0.10;0.10;;;;;;;;;;5093183;28;20431;-68
2023/04/01 14:09:22;;;;;;;0.10;0.10;;;;;;;;;;5099434;28;20421;-68
2023/04/01 14:11:52;;;;;;;0.20;0.20;;;;;;;;;;5089718;28;20432;-68
2023/04/01 14:14:38;;;;;;;0.10;0.10;;;;;;;;;;5089700;28;20568;-67
2023/04/01 14:17:44;;;;;;;0.10;0.10;;;;;;;;;;5097019;28;20425;-68
2023/04/01 14:20:21;;;;;;;0.10;0.10;;;;;;;;;;5081066;28;20429;-67
2023/04/01 14:23:27;;;;;;;0.10;0.10;;;;;;;;;;5085214;28;20425;-67
2023/04/01 14:26:13;;;;;;;0.10;0.10;;;;;;;;;;5024429;28;20506;-68
2023/04/01 14:28:56;;;;;;;0.20;0.20;;;;;;;;;;5026667;28;20466;-68
2023/04/01 14:31:31;;;;;;;0.20;0.20;;;;;;;;;;5024377;28;20435;-68
2023/04/01 14:34:04;;;;;;;0.10;0.10;;;;;;;;;;5012941;28;20488;-69
2023/04/01 14:36:52;;;;;;;0.10;0.10;;;;;;;;;;5025149;28;20430;-68
2023/04/01 14:39:30;;;;;;;0.20;0.20;;;;;;;;;;5024515;28;20431;-68
2023/04/01 14:42:20;;;;;;;0.22;0.22;;;;;;;;;;5031531;28;20440;-69
2023/04/01 14:44:55;;;;;;;0.20;0.13;;;;;;;;;;5025422;28;20477;-69
2023/04/01 14:47:45;;;;;;;0.20;0.20;;;;;;;;;;5024072;28;20442;-68
2023/04/01 14:50:21;;;;;;;0.20;0.20;;;;;;;;;;4974408;28;20511;-69
2023/04/01 14:52:59;;;;;;;0.30;0.20;;;;;;;;;;5024411;28;20455;-67
2023/04/01 14:55:41;;;;;;;0.20;0.20;;;;;;;;;;5032612;28;20421;-68
2023/04/01 14:58:11;;;;;;;0.20;0.20;;;;;;;;;;5099245;27;20662;-68
2023/04/01 15:00:49;;;;;;;0.20;0.20;;;;;;;;;;5100444;28;21049;-68
2023/04/01 15:03:22;;;;;;;0.10;0.10;;;;;;;;;;5090125;28;20529;-68
2023/04/01 15:06:15;;;;;;;0.70;0.20;;;;;;;;;;5092816;27;20776;-70
2023/04/01 15:08:59;;;;;;;0.30;0.30;;;;;;;;;;5109774;27;20422;-67
2023/04/01 15:11:50;;;;;;;0.20;0.20;;;;;;;;;;5089181;28;20422;-67
2023/04/01 15:14:38;;;;;;;0.10;0.10;;;;;;;;;;5095173;28;20505;-67
2023/04/01 15:17:14;;;;;;;0.20;0.20;;;;;;;;;;5102420;28;20518;-67
2023/04/01 15:20:00;;;;;;;0.10;0.10;;;;;;;;;;5089290;28;20430;-69
2023/04/01 15:22:46;;;;;;;0.20;0.20;;;;;;;;;;5088598;28;20467;-69
2023/04/01 15:25:16;;;;;;;0.20;0.20;;;;;;;;;;5088745;28;20433;-70
2023/04/01 15:27:49;;;;;;;0.10;0.10;;;;;;;;;;5089924;28;20425;-69